Latest Coastal Weather Observations for Hervey Bay

IDQ60701

Issued at 3:45 pm EST Saturday 25 October 2014 (issued every 10 minutes, with the page automatically refreshed every 10 minutes)

About coastal observations | Map of coastal stations | Coastal observations for QLD | Marine services | Other Formats
Station Details ID: 040405 Name: HERVEY BAY AIRPORT Lat: -25.32 Lon: 152.88 Height: 12.98 m
Data from the previous 72 hours. | See also: Recent months at Hervey Bay
Date/Time
EST
Temp

°C
Wind Pressure Rain
since 9am
mm
Weather Cloud Vis
km
Sea
Height
m
Swell
Dir
 
Speed
knots
Gust
knots
hPa Trend Height
m
Period
s
Dir
25/03:30pm 24.1 N 12 16 1017.2 - 0.0 - - 10 - - - -
25/03:00pm 25.2 N 10 16 1017.3 - 0.0 - - 10 - - - -
25/02:30pm 25.4 N 11 15 1017.6 - 0.0 - - 10 - - - -
25/02:00pm 26.2 N 10 13 1017.9 - 0.0 - - 10 - - - -
25/01:30pm 25.4 N 11 15 1018.3 - 0.0 - - 10 - - - -
25/01:00pm 25.0 N 10 14 1018.6 - 0.0 - - 10 - - - -
25/12:30pm 26.1 N 11 16 1019.1 - 0.0 - - 10 - - - -
25/12:00pm 25.7 N 12 16 1019.7 - 0.0 - - 10 - - - -
25/11:30am 25.1 N 11 15 1020.0 - 0.0 - - 10 - - - -
25/11:00am 25.0 N 9 15 1020.5 - 0.0 - - 10 - - - -
25/10:30am 24.8 N 10 14 1021.0 - 0.0 - - 10 - - - -
25/10:00am 24.6 NNW 9 13 1021.6 - 0.0 - - 10 - - - -
25/09:30am 24.5 NNW 9 15 1021.8 - 0.0 - - 10 - - - -
25/09:00am 24.2 N 8 13 1022.0 - 0.0 - - 10 - - - -
25/08:30am 23.4 NNW 7 11 1022.0 - 0.0 - Partly cloudy 10 - - - -
25/08:00am 22.6 NNW 3 5 1021.9 - 0.0 - Partly cloudy 10 - - - -
25/07:30am 20.1 SSW 4 5 1021.8 - 0.0 - Partly cloudy 10 - - - -
25/07:00am 18.5 SW 4 5 1021.6 - 0.0 - Partly cloudy 10 - - - -
25/06:30am 17.0 SSW 5 6 1021.4 - 0.0 - Partly cloudy 10 - - - -
25/06:00am 15.7 SSW 3 5 1021.1 - 0.0 - Mostly clear 10 - - - -
25/05:30am 13.5 SW 3 4 1020.7 - 0.0 - Partly cloudy 10 - - - -
25/05:00am 13.3 SSW 4 5 1020.2 - 0.0 - Partly cloudy 10 - - - -
25/04:30am 12.4 CALM 0 0 1019.6 - 0.0 - - 10 - - - -
25/04:00am 12.4 CALM 0 0 1019.2 - 0.0 - - 10 - - - -
25/03:30am 12.3 CALM 0 0 1019.4 - 0.0 - - 10 - - - -
25/03:00am 12.5 CALM 0 0 1019.5 - 0.0 - - 10 - - - -
25/02:30am 12.6 SSW 0 0 1019.6 - 0.0 - - 10 - - - -
25/02:00am 12.6 CALM 0 0 1019.7 - 0.0 - - 10 - - - -
25/01:30am 12.9 CALM 0 0 1020.2 - 0.0 - - 10 - - - -
25/01:00am 13.2 CALM 0 0 1020.6 - 0.0 - - 10 - - - -
25/12:30am 13.3 CALM 0 0 1020.9 - 0.0 - - 10 - - - -
25/12:00am 13.6 SW 3 4 1021.0 - 0.0 - - 10 - - - -
 
Date/Time
EST
Temp

°C
Wind Pressure Rain
since 9am
mm
Weather Cloud Vis
km
Sea
Height
m
Swell
Dir
 
Speed
knots
Gust
knots
hPa Trend Height
m
Period
s
Dir
24/11:30pm 14.2 CALM 0 0 1021.3 - 0.0 - - 10 - - - -
24/11:00pm 14.5 CALM 0 0 1021.4 - 0.0 - - 10 - - - -
24/10:30pm 15.2 CALM 0 0 1021.9 - 0.0 - - 10 - - - -
24/10:00pm 17.6 ENE 4 8 1021.9 - 0.0 - - 10 - - - -
24/09:30pm 19.4 E 5 7 1022.2 - 0.0 - - 10 - - - -
24/09:00pm 20.3 E 6 8 1022.2 - 0.0 - - 10 - - - -
24/08:30pm 20.5 ENE 7 9 1022.1 - 0.0 - - 10 - - - -
24/08:00pm 20.7 E 7 8 1022.0 - 0.0 - - 10 - - - -
24/07:30pm 21.0 ENE 7 9 1021.7 - 0.0 - - 10 - - - -
24/07:00pm 21.0 E 8 11 1021.6 - 0.0 - - 10 - - - -
24/06:30pm 21.4 E 9 12 1021.2 - 0.0 - - 10 - - - -
24/06:00pm 21.8 E 10 13 1020.9 - 0.0 - - 10 - - - -
24/05:30pm 22.7 E 11 15 1020.6 - 0.0 - - 10 - - - -
24/05:00pm 23.5 ESE 9 12 1020.5 - 0.0 - - 10 - - - -
24/04:30pm 24.1 ESE 10 13 1020.4 - 0.0 - - 10 - - - -
24/04:00pm 24.7 ESE 11 15 1020.1 - 0.0 - - 10 - - - -
24/03:30pm 25.0 E 11 15 1019.7 - 0.0 - - 10 - - - -
24/03:00pm 25.3 ESE 10 16 1019.8 - 0.0 - - 10 - - - -
24/02:30pm 25.5 ESE 10 15 1019.9 - 0.0 - - 10 - - - -
24/02:00pm 25.6 E 11 15 1020.1 - 0.0 - - 10 - - - -
24/01:30pm 25.4 E 11 16 1020.1 - 0.0 - - 10 - - - -
24/01:00pm 25.9 E 11 13 1020.4 - 0.0 - - 10 - - - -
24/12:30pm 25.5 ESE 7 14 1020.7 - 0.0 - - 10 - - - -
24/12:00pm 26.2 ENE 11 14 1021.1 - 0.0 - - 10 - - - -
24/11:30am 25.2 E 8 12 1021.5 - 0.0 - - 10 - - - -
24/11:00am 25.4 E 9 13 1021.8 - 0.0 - Partly cloudy 10 - - - -
24/10:30am 24.6 SSE 7 11 1022.1 - 0.0 - Partly cloudy 10 - - - -
24/10:00am 24.6 ESE 7 10 1022.4 - 0.0 - Partly cloudy 10 - - - -
24/09:30am 24.4 E 6 9 1022.6 - 0.0 - Partly cloudy 10 - - - -
24/09:00am 23.9 ESE 6 10 1022.8 - 0.0 - - 10 - - - -
24/08:30am 22.9 E 6 10 1022.8 - 0.0 - - 10 - - - -
24/08:00am 22.6 E 6 9 1022.5 - 0.0 - - 10 - - - -
24/07:30am 21.6 S 4 6 1022.3 - 0.0 - - 10 - - - -
24/07:00am 20.6 SSW 3 5 1022.1 - 0.0 - - 10 - - - -
24/06:30am 17.9 CALM 0 3 1021.9 - 0.0 - - 10 - - - -
24/06:00am 16.0 SSW 4 5 1021.8 - 0.0 - - 10 - - - -
24/05:30am 13.5 SSW 4 5 1021.5 - 0.0 - - 10 - - - -
24/05:00am 12.1 SSW 3 4 1020.9 - 0.0 - - 10 - - - -
24/04:30am 12.5 CALM 0 2 1020.6 - 0.0 - - 10 - - - -
24/04:00am 12.2 SSW 1 4 1020.6 - 0.0 - - 10 - - - -
24/03:30am 13.0 CALM 0 2 1020.3 - 0.0 - - 10 - - - -
24/03:00am 12.9 SSW 2 3 1020.5 - 0.0 - - 10 - - - -
24/02:30am 13.0 SSW 2 4 1020.7 - 0.0 - - 10 - - - -
24/02:00am 12.4 CALM 0 0 1020.9 - 0.0 - - 10 - - - -
24/01:30am 12.7 CALM 0 0 1020.8 - 0.0 - - 10 - - - -
24/01:00am 12.9 CALM 0 0 1020.9 - 0.0 - - 10 - - - -
24/12:30am 13.0 CALM 0 0 1021.2 - 0.0 - - 10 - - - -
24/12:00am 13.4 CALM 0 0 1021.4 - 0.0 - - 10 - - - -
 
Date/Time
EST
Temp

°C
Wind Pressure Rain
since 9am
mm
Weather Cloud Vis
km
Sea
Height
m
Swell
Dir
 
Speed
knots
Gust
knots
hPa Trend Height
m
Period
s
Dir
23/11:30pm 13.6 CALM 0 0 1021.4 - 0.0 - - 10 - - - -
23/11:00pm 14.0 CALM 0 0 1021.6 - 0.0 - - 10 - - - -
23/10:30pm 14.6 CALM 0 0 1021.5 - 0.0 - - 10 - - - -
23/10:00pm 15.5 CALM 0 0 1021.5 - 0.0 - - 10 - - - -
23/09:30pm 18.2 NE 3 8 1021.5 - 0.0 - - 10 - - - -
23/09:00pm 18.0 NNE 2 4 1021.5 - 0.0 - - 10 - - - -
23/08:30pm 20.1 ENE 6 8 1021.1 - 0.0 - - 10 - - - -
23/08:00pm 19.9 ENE 6 9 1020.5 - 0.0 - - 10 - - - -
23/07:30pm 20.3 ENE 8 11 1020.1 - 0.0 - - 10 - - - -
23/07:00pm 20.3 E 7 11 1019.9 - 0.0 - - 10 - - - -
23/06:30pm 20.8 E 10 13 1019.4 - 0.0 - - 10 - - - -
23/06:00pm 21.2 E 9 14 1019.0 - 0.0 - - 10 - - - -
23/05:30pm 22.2 E 10 14 1018.8 - 0.0 - - 10 - - - -
23/05:00pm 23.4 E 10 13 1018.4 - 0.0 - - 10 - - - -
23/04:30pm 24.1 E 10 15 1018.1 - 0.0 - - 10 - - - -
23/04:00pm 24.7 E 11 15 1017.9 - 0.0 - - 10 - - - -
23/03:30pm 25.4 E 11 14 1018.1 - 0.0 - - 10 - - - -
23/03:00pm 25.8 E 11 15 1018.2 - 0.0 - - 10 - - - -
23/02:30pm 25.6 E 12 16 1018.1 - 0.0 - - 10 - - - -
23/02:00pm 26.3 E 10 14 1018.5 - 0.0 - - 10 - - - -
23/01:30pm 25.6 ESE 10 13 1018.7 - 0.0 - - 10 - - - -
23/01:00pm 25.0 ESE 10 16 1019.2 - 0.0 - - 10 - - - -
23/12:30pm 25.3 ESE 11 16 1019.5 - 0.0 - - 10 - - - -
23/12:00pm 25.8 E 9 15 1020.0 - 0.0 - - 10 - - - -
23/11:30am 25.4 S 9 15 1020.6 - 0.0 - - 10 - - - -
23/11:00am 25.0 SSE 8 12 1021.0 - 0.0 - - 10 - - - -
23/10:30am 24.5 ESE 8 13 1021.3 - 0.0 - - 10 - - - -
23/10:00am 24.0 SSE 7 11 1021.5 - 0.0 - - 10 - - - -
23/09:30am 23.1 SE 7 13 1021.8 - 0.0 - Partly cloudy 10 - - - -
23/09:00am 23.3 SE 7 12 1021.8 - 0.0 - - 10 - - - -
23/08:30am 22.4 SE 7 14 1022.0 - 0.0 - Partly cloudy 10 - - - -
23/08:00am 21.6 SW 7 9 1022.0 - 0.0 - - 10 - - - -
23/07:30am 20.0 SSW 7 9 1022.0 - 0.0 - - 10 - - - -
23/07:00am 17.8 SSW 7 9 1021.9 - 0.0 - - 10 - - - -
23/06:30am 16.2 SSW 7 8 1021.8 - 0.0 - - 10 - - - -
23/06:00am 15.1 SW 6 8 1021.7 - 0.0 - - 10 - - - -
23/05:30am 13.5 SW 6 7 1021.6 - 0.0 - - 10 - - - -
23/05:00am 13.3 SW 6 7 1021.6 - 0.0 - - 10 - - - -
23/04:30am 13.0 SW 4 5 1021.4 - 0.0 - - 10 - - - -
23/04:00am 13.2 WSW 4 5 1021.2 - 0.0 - Partly cloudy 10 - - - -
23/03:30am 13.8 SW 4 6 1021.0 - 0.0 - Partly cloudy 10 - - - -
23/03:00am 14.1 SW 5 6 1020.9 - 0.0 - Partly cloudy 10 - - - -
23/02:30am 13.5 SW 3 5 1020.9 - 0.0 - - 10 - - - -
23/02:00am 13.8 WSW 3 4 1020.9 - 0.0 - - 10 - - - -
23/01:30am 15.7 SSE 4 5 1021.2 - 0.0 - Partly cloudy 10 - - - -
23/01:00am 18.2 SE 5 7 1021.5 - 0.0 - Partly cloudy 10 - - - -
23/12:30am 18.1 SE 5 7 1021.8 - 0.0 - Partly cloudy 10 - - - -
23/12:00am 18.2 SE 5 7 1022.0 - 0.0 - Mostly clear 10 - - - -
 
Date/Time
EST
Temp

°C
Wind Pressure Rain
since 9am
mm
Weather Cloud Vis
km
Sea
Height
m
Swell
Dir
 
Speed
knots
Gust
knots
hPa Trend Height
m
Period
s
Dir
22/11:30pm 18.8 SE 6 8 1022.2 - 0.0 - - 10 - - - -
22/11:00pm 19.0 SE 6 8 1022.5 - 0.0 - Partly cloudy 10 - - - -
22/10:30pm 19.3 SE 7 11 1022.6 - 0.0 - - 10 - - - -
22/10:00pm 19.4 SE 7 10 1022.8 - 0.0 - - 10 - - - -
22/09:30pm 19.5 SE 8 10 1022.9 - 0.0 - - 10 - - - -
22/09:00pm 19.6 SE 9 13 1022.9 - 0.0 - - 10 - - - -
22/08:30pm 19.8 SE 10 16 1022.8 - 0.0 - - 10 - - - -
22/08:00pm 19.8 ESE 10 15 1022.6 - 0.0 - - 10 - - - -
22/07:30pm 19.7 SE 8 13 1022.6 - 0.0 - - 10 - - - -
22/07:00pm 19.8 SE 11 16 1022.4 - 0.0 - - 10 - - - -
22/06:30pm 20.4 SE 12 20 1022.1 - 0.0 - - 10 - - - -
22/06:00pm 20.5 SE 11 17 1021.9 - 0.0 - - 10 - - - -
22/05:30pm 21.2 SE 11 17 1021.6 - 0.0 - - 10 - - - -
22/05:00pm 21.9 SE 11 20 1021.4 - 0.0 - - 10 - - - -
22/04:30pm 22.8 SE 11 19 1021.1 - 0.0 - - 10 - - - -
22/04:00pm 22.9 SE 12 19 1021.1 - 0.0 - - 10 - - - -

Other Formats:

Comma delimited format used in spreadsheet applications
http://www.bom.gov.au/fwo/IDQ60701/IDQ60701.95565.axf

JavaScript Object Notation format (JSON) in row-major order
http://www.bom.gov.au/fwo/IDQ60701/IDQ60701.95565.json